Time;durP1;ratioP1;P1;durP2;ratioP2;P2;SDS_P1;SDS_P2;PMS_P1;PMS_P2;Temp;Humidity;BMP_temperature;BMP_pressure;BME280_temperature;BME280_humidity;BME280_pressure;Samples;Min_cycle;Max_cycle;Signal;HPM_P1;HPM_P2
2022/03/02 00:00:52;;;;;;;46.83;29.67;;;18.80;60.70;;;;;;5055943;28;20031;-67
2022/03/02 00:03:17;;;;;;;49.40;29.80;;;18.80;60.70;;;;;;5054606;28;20021;-67
2022/03/02 00:05:43;;;;;;;49.08;29.42;;;18.80;60.70;;;;;;5053340;28;20079;-67
2022/03/02 00:08:09;;;;;;;46.60;29.52;;;18.80;60.70;;;;;;5053927;28;20664;-67
2022/03/02 00:10:34;;;;;;;43.60;28.15;;;18.80;60.80;;;;;;5052972;28;20028;-67
2022/03/02 00:13:00;;;;;;;46.47;29.92;;;18.80;60.80;;;;;;5053245;28;20033;-67
2022/03/02 00:15:26;;;;;;;42.60;28.10;;;18.80;60.90;;;;;;5053848;28;20033;-67
2022/03/02 00:17:51;;;;;;;43.08;27.77;;;18.80;60.90;;;;;;5054333;28;20082;-67
2022/03/02 00:20:18;;;;;;;47.47;27.88;;;18.80;60.90;;;;;;5054344;28;20086;-67
2022/03/02 00:22:43;;;;;;;44.58;27.85;;;18.80;60.90;;;;;;5053909;28;20061;-67
2022/03/02 00:25:09;;;;;;;45.58;28.10;;;18.80;60.90;;;;;;5055431;28;20057;-67
2022/03/02 00:27:35;;;;;;;41.65;26.55;;;18.80;60.90;;;;;;5054123;28;20386;-66
2022/03/02 00:30:01;;;;;;;45.17;26.90;;;18.80;60.90;;;;;;5054355;28;20036;-67
2022/03/02 00:32:27;;;;;;;43.70;27.38;;;18.80;61.00;;;;;;5054257;28;20017;-66
2022/03/02 00:34:52;;;;;;;38.75;26.40;;;18.80;61.00;;;;;;5054330;28;20108;-67
2022/03/02 00:37:18;;;;;;;43.58;26.10;;;18.80;61.00;;;;;;5055246;28;20044;-66
2022/03/02 00:39:44;;;;;;;40.47;26.25;;;18.80;61.00;;;;;;5055093;28;20029;-67
2022/03/02 00:42:10;;;;;;;40.67;26.88;;;18.80;61.00;;;;;;5055283;28;20064;-67
2022/03/02 00:44:35;;;;;;;42.60;26.35;;;18.70;61.00;;;;;;5053897;28;20032;-67
2022/03/02 00:47:01;;;;;;;40.25;25.92;;;18.80;61.10;;;;;;5053230;28;20014;-67
2022/03/02 00:49:27;;;;;;;37.13;24.35;;;18.70;61.00;;;;;;5055172;28;20025;-66
2022/03/02 00:51:56;;;;;;;37.65;24.73;;;18.70;61.10;;;;;;5055082;28;20391;-67
2022/03/02 00:54:22;;;;;;;37.63;24.35;;;18.70;61.10;;;;;;5053494;28;20033;-67
2022/03/02 00:56:47;;;;;;;37.10;24.30;;;18.70;61.20;;;;;;5053640;28;20021;-67
2022/03/02 00:59:13;;;;;;;36.72;24.15;;;18.70;61.20;;;;;;5053871;28;20037;-67
2022/03/02 01:01:39;;;;;;;34.30;23.02;;;18.70;61.20;;;;;;5054629;28;20401;-67
2022/03/02 01:04:04;;;;;;;35.13;22.92;;;18.70;61.10;;;;;;5053531;28;20025;-66
2022/03/02 01:06:30;;;;;;;32.55;22.65;;;18.70;61.20;;;;;;5053580;28;20106;-66
2022/03/02 01:08:55;;;;;;;33.72;22.15;;;18.70;61.20;;;;;;5054507;28;20544;-66
2022/03/02 01:11:21;;;;;;;40.22;23.55;;;18.70;61.20;;;;;;5054734;28;20017;-67
2022/03/02 01:13:47;;;;;;;34.47;22.75;;;18.70;61.30;;;;;;5054638;28;20064;-67
2022/03/02 01:16:14;;;;;;;34.15;22.27;;;18.70;61.30;;;;;;5053602;28;20108;-66
2022/03/02 01:18:39;;;;;;;31.33;21.42;;;18.70;61.40;;;;;;5054417;28;20062;-67
2022/03/02 01:21:05;;;;;;;33.47;21.88;;;18.70;61.40;;;;;;5053226;28;20033;-67
2022/03/02 01:23:31;;;;;;;33.92;21.52;;;18.70;61.40;;;;;;5052567;28;20041;-67
2022/03/02 01:25:56;;;;;;;29.65;20.60;;;18.70;61.40;;;;;;5053344;28;20021;-66
2022/03/02 01:28:22;;;;;;;32.38;21.30;;;18.70;61.40;;;;;;5053207;28;20040;-66
2022/03/02 01:30:48;;;;;;;34.03;20.00;;;18.70;61.40;;;;;;5053039;28;20021;-66
2022/03/02 01:33:13;;;;;;;34.35;21.42;;;18.70;61.40;;;;;;5054281;28;20021;-66
2022/03/02 01:35:39;;;;;;;32.13;21.10;;;18.70;61.40;;;;;;5054068;28;20021;-66
2022/03/02 01:38:04;;;;;;;28.88;19.45;;;18.70;61.40;;;;;;5054167;28;20033;-66
2022/03/02 01:40:30;;;;;;;29.63;20.23;;;18.70;61.40;;;;;;5052955;28;20395;-67
2022/03/02 01:42:56;;;;;;;31.30;20.13;;;18.70;61.40;;;;;;5052559;28;20448;-66
2022/03/02 01:45:21;;;;;;;30.80;19.67;;;18.70;61.40;;;;;;5052875;28;20025;-67
2022/03/02 01:47:47;;;;;;;29.42;19.25;;;18.70;61.50;;;;;;5052784;28;20036;-67
2022/03/02 01:50:13;;;;;;;29.98;19.33;;;18.70;61.50;;;;;;5054030;28;20036;-67
2022/03/02 01:52:39;;;;;;;28.58;19.15;;;18.70;61.60;;;;;;5052446;28;20021;-67
2022/03/02 01:55:04;;;;;;;30.17;18.90;;;18.70;61.60;;;;;;5052843;28;20029;-67
2022/03/02 01:57:30;;;;;;;27.27;18.27;;;18.70;61.60;;;;;;5051976;28;20029;-67
2022/03/02 01:59:56;;;;;;;26.27;17.75;;;18.70;61.60;;;;;;5052182;28;20056;-67
2022/03/02 02:02:21;;;;;;;27.73;17.83;;;18.70;61.60;;;;;;5052663;28;20029;-67
2022/03/02 02:04:47;;;;;;;25.85;16.90;;;18.70;61.60;;;;;;5053342;28;20028;-67
2022/03/02 02:07:12;;;;;;;24.67;16.77;;;18.70;61.70;;;;;;5053519;28;20103;-67
2022/03/02 02:09:38;;;;;;;27.55;17.83;;;18.70;61.60;;;;;;5053497;28;20025;-67
2022/03/02 02:12:04;;;;;;;24.60;16.48;;;18.70;61.70;;;;;;5052499;28;20090;-67
2022/03/02 02:14:30;;;;;;;26.05;16.73;;;18.70;61.70;;;;;;5053476;28;20022;-67
2022/03/02 02:16:55;;;;;;;25.15;16.15;;;18.70;61.70;;;;;;5052244;28;20398;-67
2022/03/02 02:19:21;;;;;;;26.63;16.67;;;18.70;61.70;;;;;;5052295;28;20028;-67
2022/03/02 02:21:48;;;;;;;23.38;15.93;;;18.70;61.70;;;;;;5052687;28;20044;-67
2022/03/02 02:24:15;;;;;;;24.20;15.90;;;18.70;61.70;;;;;;5035585;28;20150;-67
2022/03/02 02:26:40;;;;;;;26.88;16.00;;;18.70;61.70;;;;;;5032091;28;20029;-67
2022/03/02 02:29:06;;;;;;;23.60;16.20;;;18.70;61.70;;;;;;5032252;28;20109;-66
2022/03/02 02:31:32;;;;;;;22.15;15.23;;;18.70;61.70;;;;;;5032138;28;20024;-67
2022/03/02 02:33:57;;;;;;;20.17;14.38;;;18.70;61.80;;;;;;5031999;28;20026;-67
2022/03/02 02:36:24;;;;;;;22.58;15.00;;;18.70;61.80;;;;;;5031819;28;20056;-67
2022/03/02 02:38:50;;;;;;;22.98;15.20;;;18.70;61.80;;;;;;5031984;28;20026;-67
2022/03/02 02:41:16;;;;;;;23.08;14.70;;;18.70;61.80;;;;;;5033094;28;20034;-66
2022/03/02 02:43:42;;;;;;;23.55;15.27;;;18.70;61.80;;;;;;5032933;28;20148;-67
2022/03/02 02:46:09;;;;;;;18.63;14.00;;;18.70;61.80;;;;;;5033019;28;20022;-66
2022/03/02 02:48:34;;;;;;;22.17;13.85;;;18.70;61.80;;;;;;5031863;28;20208;-67
2022/03/02 02:51:00;;;;;;;23.08;14.48;;;18.70;61.90;;;;;;5032856;28;20030;-67
2022/03/02 02:53:26;;;;;;;17.63;13.20;;;18.70;61.80;;;;;;5032842;28;20033;-66
2022/03/02 02:55:53;;;;;;;22.00;14.20;;;18.60;61.80;;;;;;5031805;28;20041;-66
2022/03/02 02:58:18;;;;;;;19.63;14.07;;;18.70;61.90;;;;;;5015311;28;20049;-66
2022/03/02 03:00:45;;;;;;;21.15;13.32;;;18.60;61.80;;;;;;5032800;28;20076;-66
2022/03/02 03:03:10;;;;;;;21.13;13.35;;;18.60;61.90;;;;;;5032774;28;20070;-66
2022/03/02 03:05:36;;;;;;;18.88;13.30;;;18.60;61.90;;;;;;5031110;28;20510;-66
2022/03/02 03:08:12;;;;;;;19.92;12.95;;;18.70;62.00;;;;;;5031478;28;20055;-66
2022/03/02 03:10:39;;;;;;;16.17;12.52;;;18.60;61.90;;;;;;5031100;28;20442;-66
2022/03/02 03:13:04;;;;;;;17.30;11.75;;;18.60;62.00;;;;;;5031407;28;20083;-66
2022/03/02 03:15:30;;;;;;;18.25;12.85;;;18.60;61.90;;;;;;5031352;28;20025;-66
2022/03/02 03:17:56;;;;;;;17.35;11.75;;;18.60;62.00;;;;;;5032443;28;20021;-67
2022/03/02 03:20:24;;;;;;;18.02;11.75;;;18.60;63.00;;;;;;5031253;28;20033;-67
2022/03/02 03:22:51;;;;;;;17.13;11.30;;;18.60;62.00;;;;;;5031841;28;20030;-67
2022/03/02 03:25:16;;;;;;;16.65;11.48;;;18.60;62.00;;;;;;5014658;28;20029;-65
2022/03/02 03:27:42;;;;;;;17.02;11.85;;;18.60;62.00;;;;;;5031249;28;20022;-65
2022/03/02 03:30:08;;;;;;;16.75;11.75;;;18.60;62.00;;;;;;5032320;28;20109;-65
2022/03/02 03:32:34;;;;;;;16.95;11.23;;;18.60;62.00;;;;;;5014108;28;20053;-65
2022/03/02 03:35:00;;;;;;;15.63;11.20;;;18.60;62.10;;;;;;5032073;28;20064;-65
2022/03/02 03:37:26;;;;;;;16.38;10.60;;;18.60;62.10;;;;;;5032332;28;20025;-65
2022/03/02 03:39:52;;;;;;;16.42;10.95;;;18.60;62.10;;;;;;5014530;28;20388;-64
2022/03/02 03:42:17;;;;;;;14.35;10.30;;;18.60;62.10;;;;;;5032221;28;20037;-64
2022/03/02 03:44:43;;;;;;;15.50;10.88;;;18.60;62.20;;;;;;5031055;28;20067;-64
2022/03/02 03:47:09;;;;;;;14.07;10.25;;;18.60;62.20;;;;;;5032177;28;20029;-64
2022/03/02 03:49:34;;;;;;;14.93;10.85;;;18.60;62.20;;;;;;5030989;28;20104;-65
2022/03/02 03:52:00;;;;;;;14.05;9.90;;;18.60;62.30;;;;;;5014102;28;20064;-65
2022/03/02 03:54:25;;;;;;;13.27;9.82;;;18.60;62.20;;;;;;5032373;28;20079;-64
2022/03/02 03:56:51;;;;;;;15.05;10.70;;;18.50;62.20;;;;;;5030841;28;20395;-65
2022/03/02 03:59:17;;;;;;;14.43;10.18;;;18.60;62.20;;;;;;5031961;28;20483;-65
2022/03/02 04:01:42;;;;;;;13.60;9.80;;;18.50;62.20;;;;;;5030948;28;20388;-64
2022/03/02 04:04:08;;;;;;;13.45;9.93;;;18.50;62.20;;;;;;5031747;28;20471;-64
2022/03/02 04:06:34;;;;;;;13.77;10.00;;;18.50;62.20;;;;;;5032175;28;20026;-65
2022/03/02 04:08:59;;;;;;;12.70;8.55;;;18.50;62.20;;;;;;5014226;28;20028;-64
2022/03/02 04:11:25;;;;;;;12.18;9.10;;;18.50;62.20;;;;;;5031027;28;20025;-64
2022/03/02 04:13:50;;;;;;;12.73;8.52;;;18.50;62.30;;;;;;5032076;28;20026;-64
2022/03/02 04:16:16;;;;;;;12.32;8.68;;;18.50;62.30;;;;;;5031959;28;20474;-64
2022/03/02 04:18:42;;;;;;;12.13;8.88;;;18.50;62.30;;;;;;5031582;28;20064;-65
2022/03/02 04:21:08;;;;;;;13.73;9.25;;;18.50;62.30;;;;;;5032118;28;20063;-64
2022/03/02 04:23:33;;;;;;;12.13;8.80;;;18.50;62.30;;;;;;5035431;28;20092;-65
2022/03/02 04:25:59;;;;;;;11.73;8.23;;;18.50;62.40;;;;;;5035558;28;20033;-64
2022/03/02 04:28:25;;;;;;;11.85;8.70;;;18.50;62.30;;;;;;5035628;28;20398;-64
2022/03/02 04:30:50;;;;;;;13.60;9.27;;;18.50;62.30;;;;;;5034340;28;20025;-64
2022/03/02 04:33:16;;;;;;;14.52;7.85;;;18.50;62.30;;;;;;5035274;28;20407;-64
2022/03/02 04:35:42;;;;;;;11.98;8.75;;;18.50;62.30;;;;;;5034299;28;20030;-64
2022/03/02 04:38:08;;;;;;;12.52;8.57;;;18.50;62.40;;;;;;5034185;28;20033;-64
2022/03/02 04:40:34;;;;;;;13.85;7.93;;;18.50;62.40;;;;;;5034300;28;20025;-64
2022/03/02 04:42:59;;;;;;;9.48;7.18;;;18.50;62.40;;;;;;5033917;28;20029;-64
2022/03/02 04:45:27;;;;;;;10.95;7.63;;;18.50;62.40;;;;;;5017609;28;20021;-64
2022/03/02 04:47:53;;;;;;;11.25;7.75;;;18.50;62.40;;;;;;5033823;28;20029;-64
2022/03/02 04:50:22;;;;;;;11.02;7.50;;;18.50;62.40;;;;;;5034060;28;20504;-64
2022/03/02 04:52:48;;;;;;;14.13;8.60;;;18.50;62.40;;;;;;5035069;28;20095;-64
2022/03/02 04:55:14;;;;;;;12.05;8.23;;;18.50;62.40;;;;;;5034051;28;20041;-64
2022/03/02 04:57:44;;;;;;;10.07;7.57;;;18.50;62.40;;;;;;5033866;28;20442;-64
2022/03/02 05:00:11;;;;;;;9.88;7.22;;;18.50;62.50;;;;;;5017121;28;20499;-64
2022/03/02 05:02:37;;;;;;;9.90;7.28;;;18.50;62.50;;;;;;5034842;28;20037;-64
2022/03/02 05:05:07;;;;;;;10.50;7.13;;;18.40;62.50;;;;;;5033409;28;20029;-64
2022/03/02 05:07:34;;;;;;;9.40;6.53;;;18.50;62.50;;;;;;5017202;28;20557;-64
2022/03/02 05:10:00;;;;;;;9.85;7.03;;;18.50;62.50;;;;;;5017121;28;20021;-64
2022/03/02 05:12:25;;;;;;;7.18;6.18;;;18.50;62.50;;;;;;5033841;28;20387;-65
2022/03/02 05:14:51;;;;;;;9.95;6.60;;;18.50;62.50;;;;;;5034455;28;20087;-65
2022/03/02 05:17:17;;;;;;;10.02;6.85;;;18.50;62.60;;;;;;5034637;28;20095;-65
2022/03/02 05:19:42;;;;;;;9.35;6.75;;;18.50;62.50;;;;;;5016764;28;20431;-65
2022/03/02 05:22:09;;;;;;;8.25;6.65;;;18.50;62.60;;;;;;5032997;28;20048;-65
2022/03/02 05:24:35;;;;;;;9.00;6.28;;;18.50;62.60;;;;;;5033460;28;20419;-64
2022/03/02 05:27:00;;;;;;;10.35;5.68;;;18.50;62.60;;;;;;5037134;28;20013;-64
2022/03/02 05:29:26;;;;;;;9.13;6.72;;;18.40;62.60;;;;;;5038847;28;20033;-64
2022/03/02 05:31:52;;;;;;;7.50;6.03;;;18.40;62.60;;;;;;5039031;28;20024;-65
2022/03/02 05:34:17;;;;;;;10.00;6.90;;;18.50;62.70;;;;;;5042337;28;20120;-65
2022/03/02 05:36:43;;;;;;;9.40;6.20;;;18.50;62.70;;;;;;5042032;28;20052;-64
2022/03/02 05:39:08;;;;;;;8.90;5.53;;;18.50;62.70;;;;;;5042104;28;20119;-65
2022/03/02 05:41:34;;;;;;;7.82;5.95;;;18.50;62.70;;;;;;5044246;28;20009;-64
2022/03/02 05:44:01;;;;;;;7.50;5.90;;;18.50;62.70;;;;;;5053679;28;20162;-65
2022/03/02 05:46:27;;;;;;;7.85;6.22;;;18.40;62.70;;;;;;5053126;28;20045;-65
2022/03/02 05:48:53;;;;;;;10.68;6.05;;;18.50;62.80;;;;;;5052858;28;20021;-65
2022/03/02 05:51:19;;;;;;;7.50;5.22;;;18.50;62.80;;;;;;5052874;28;20032;-65
2022/03/02 05:53:45;;;;;;;11.32;5.80;;;18.50;62.80;;;;;;5053874;28;20029;-65
2022/03/02 05:56:11;;;;;;;10.27;5.40;;;18.40;62.70;;;;;;5052710;28;20032;-65
2022/03/02 05:58:36;;;;;;;7.00;5.38;;;18.50;62.80;;;;;;5052514;28;20052;-65
2022/03/02 06:01:02;;;;;;;7.50;5.22;;;18.50;62.80;;;;;;5053655;28;20114;-65
2022/03/02 06:03:28;;;;;;;7.88;5.50;;;18.50;62.80;;;;;;5053717;28;20029;-65
2022/03/02 06:05:54;;;;;;;7.55;5.25;;;18.40;62.80;;;;;;5053610;28;20063;-65
2022/03/02 06:08:20;;;;;;;7.28;4.88;;;18.50;62.90;;;;;;5052288;28;20033;-65
2022/03/02 06:10:47;;;;;;;7.03;4.65;;;18.50;62.90;;;;;;5035577;28;20028;-65
2022/03/02 06:13:14;;;;;;;7.32;5.55;;;18.50;62.90;;;;;;5053405;28;20368;-65
2022/03/02 06:15:40;;;;;;;7.97;5.20;;;18.50;63.00;;;;;;5053636;28;20074;-65
2022/03/02 06:18:06;;;;;;;6.38;4.90;;;18.50;62.90;;;;;;5053259;28;20029;-65
2022/03/02 06:20:32;;;;;;;6.47;4.90;;;18.50;62.90;;;;;;5052253;28;20445;-65
2022/03/02 06:22:58;;;;;;;7.50;4.53;;;18.50;62.90;;;;;;5052545;28;20049;-65
2022/03/02 06:25:24;;;;;;;6.38;4.88;;;18.50;62.90;;;;;;5052081;28;20057;-65
2022/03/02 06:27:50;;;;;;;6.43;4.70;;;18.50;63.00;;;;;;5035355;28;20092;-65
2022/03/02 06:30:15;;;;;;;5.05;4.35;;;18.50;63.00;;;;;;5051969;28;20072;-64
2022/03/02 06:32:41;;;;;;;5.38;4.55;;;18.50;63.00;;;;;;5053288;28;20107;-65
2022/03/02 06:35:07;;;;;;;4.75;3.92;;;18.40;63.00;;;;;;5051996;28;20036;-65
2022/03/02 06:37:34;;;;;;;5.30;4.30;;;18.50;63.00;;;;;;5051996;28;20093;-65
2022/03/02 06:40:00;;;;;;;6.07;4.80;;;18.50;63.10;;;;;;5035237;28;20032;-65
2022/03/02 06:42:40;;;;;;;6.63;4.85;;;18.50;63.10;;;;;;5051664;28;20025;-65
2022/03/02 06:45:15;;;;;;;5.68;4.38;;;18.50;63.10;;;;;;5051159;28;20483;-65
2022/03/02 06:47:50;;;;;;;6.20;4.07;;;18.50;63.10;;;;;;5051151;28;20025;-65
2022/03/02 06:50:16;;;;;;;5.25;4.03;;;18.50;63.10;;;;;;5035100;28;20016;-65
2022/03/02 06:52:45;;;;;;;4.97;3.67;;;18.50;63.10;;;;;;5035035;28;20021;-64
2022/03/02 06:55:15;;;;;;;4.65;4.13;;;18.50;63.10;;;;;;5051633;28;20021;-65
2022/03/02 06:57:43;;;;;;;4.55;3.85;;;18.50;63.10;;;;;;5051374;28;20025;-65
2022/03/02 07:00:14;;;;;;;4.78;3.70;;;18.40;63.20;;;;;;5051512;28;20025;-65
2022/03/02 07:02:48;;;;;;;5.90;3.92;;;18.50;63.20;;;;;;5035139;28;20029;-64
2022/03/02 07:05:14;;;;;;;5.05;3.50;;;18.40;63.20;;;;;;5051643;28;20028;-65
2022/03/02 07:07:39;;;;;;;5.93;3.97;;;18.40;63.20;;;;;;5052559;28;20029;-65
2022/03/02 07:10:06;;;;;;;5.80;3.85;;;18.40;63.20;;;;;;5051305;28;20502;-64
2022/03/02 07:12:32;;;;;;;4.80;3.28;;;18.40;63.20;;;;;;5051251;28;20502;-64
2022/03/02 07:14:57;;;;;;;3.70;2.70;;;18.40;63.20;;;;;;5051326;28;20037;-64
2022/03/02 07:17:26;;;;;;;2.95;2.42;;;18.50;63.20;;;;;;5052377;28;20108;-64
2022/03/02 07:19:51;;;;;;;2.53;2.22;;;18.50;63.20;;;;;;5034502;28;20395;-64
2022/03/02 07:22:21;;;;;;;2.05;1.60;;;18.50;63.20;;;;;;5050240;28;20467;-64
2022/03/02 07:24:54;;;;;;;1.67;1.58;;;18.50;63.10;;;;;;5031502;28;20025;-64
2022/03/02 07:27:20;;;;;;;2.15;1.95;;;18.50;63.10;;;;;;5023856;28;20025;-64
2022/03/02 07:29:49;;;;;;;1.58;1.17;;;18.50;63.10;;;;;;5040350;28;20079;-64
2022/03/02 07:32:15;;;;;;;1.58;1.48;;;18.50;63.10;;;;;;5041213;28;20029;-64
2022/03/02 07:34:42;;;;;;;1.48;1.38;;;18.50;63.10;;;;;;5032669;28;20019;-64
2022/03/02 07:37:09;;;;;;;2.15;1.52;;;18.50;63.10;;;;;;5041244;28;20029;-64
2022/03/02 07:39:35;;;;;;;1.95;1.60;;;18.50;63.00;;;;;;5031415;28;20391;-64
2022/03/02 07:42:02;;;;;;;3.42;1.65;;;18.50;63.10;;;;;;5016746;28;20032;-64
2022/03/02 07:44:28;;;;;;;5.68;2.05;;;18.60;63.10;;;;;;5034721;28;20025;-64
2022/03/02 07:46:54;;;;;;;9.77;2.63;;;18.60;63.10;;;;;;5034466;28;20033;-64
2022/03/02 07:49:20;;;;;;;7.32;2.40;;;18.60;63.10;;;;;;5033419;28;20096;-64
2022/03/02 07:51:45;;;;;;;8.43;2.22;;;18.60;63.20;;;;;;5052275;28;20104;-64
2022/03/02 07:54:11;;;;;;;5.57;2.42;;;18.60;63.10;;;;;;5034132;28;20476;-64
2022/03/02 07:56:37;;;;;;;6.15;2.53;;;18.60;63.10;;;;;;5019160;28;20025;-64
2022/03/02 07:59:07;;;;;;;9.70;2.60;;;18.60;63.10;;;;;;5021936;28;20082;-64
2022/03/02 08:01:34;;;;;;;4.95;2.20;;;18.70;63.10;;;;;;5021766;28;20387;-64
2022/03/02 08:04:03;;;;;;;7.85;2.55;;;18.70;63.10;;;;;;5038356;28;20028;-64
2022/03/02 08:06:31;;;;;;;4.95;2.38;;;18.70;63.10;;;;;;5022439;28;20081;-64
2022/03/02 08:08:57;;;;;;;4.72;2.17;;;18.70;63.10;;;;;;5038164;28;20021;-64
2022/03/02 08:11:23;;;;;;;7.22;2.15;;;18.70;63.10;;;;;;5038135;28;20017;-64
2022/03/02 08:13:48;;;;;;;5.82;2.60;;;18.70;63.10;;;;;;5021700;28;20060;-64
2022/03/02 08:16:15;;;;;;;7.95;2.30;;;18.70;63.10;;;;;;5055498;28;20571;-64
2022/03/02 08:18:40;;;;;;;7.95;2.33;;;18.70;63.10;;;;;;5038134;28;20502;-64
2022/03/02 08:21:06;;;;;;;4.82;2.13;;;18.70;63.10;;;;;;5035516;28;20025;-64
2022/03/02 08:23:38;;;;;;;6.65;2.47;;;18.70;63.10;;;;;;5001366;28;20037;-64
2022/03/02 08:26:04;;;;;;;7.95;2.30;;;18.80;63.10;;;;;;5034416;28;20484;-64
2022/03/02 08:28:30;;;;;;;5.30;2.13;;;18.70;63.10;;;;;;5035596;28;20103;-64
2022/03/02 08:30:56;;;;;;;4.70;2.35;;;18.80;63.10;;;;;;5034520;28;20013;-64
2022/03/02 08:33:27;;;;;;;7.30;1.98;;;18.70;63.00;;;;;;5017822;28;20052;-64
2022/03/02 08:35:53;;;;;;;6.90;2.13;;;18.80;63.00;;;;;;5034642;28;20475;-64
2022/03/02 08:38:18;;;;;;;4.68;1.90;;;18.70;63.00;;;;;;5035042;28;20029;-64
2022/03/02 08:40:44;;;;;;;3.13;1.75;;;18.70;63.00;;;;;;5035593;28;20104;-64
2022/03/02 08:43:10;;;;;;;3.72;1.92;;;18.80;63.00;;;;;;5035417;28;20064;-64
2022/03/02 08:45:35;;;;;;;4.47;1.90;;;18.80;63.00;;;;;;5034058;28;20040;-64
2022/03/02 08:48:04;;;;;;;3.90;1.80;;;18.80;63.00;;;;;;5017566;28;20028;-64
2022/03/02 08:50:30;;;;;;;4.03;1.60;;;18.80;63.00;;;;;;5034327;28;20080;-64
2022/03/02 08:52:56;;;;;;;4.03;1.80;;;18.70;62.90;;;;;;5035064;28;20033;-64
2022/03/02 08:55:22;;;;;;;4.18;2.00;;;18.80;63.00;;;;;;5033832;28;20029;-64
2022/03/02 08:57:49;;;;;;;5.07;2.30;;;18.80;62.90;;;;;;5017598;28;20071;-64
2022/03/02 09:00:14;;;;;;;5.28;1.88;;;18.80;62.90;;;;;;5017428;28;20044;-64
2022/03/02 09:02:40;;;;;;;1.92;1.40;;;18.80;62.90;;;;;;5033798;28;20030;-64
2022/03/02 09:05:06;;;;;;;3.63;1.65;;;18.80;62.90;;;;;;5034905;28;20079;-64
2022/03/02 09:07:32;;;;;;;4.97;1.67;;;18.80;62.90;;;;;;5033074;28;20045;-64
2022/03/02 09:09:58;;;;;;;4.60;1.80;;;18.80;62.90;;;;;;5034970;28;20488;-64
2022/03/02 09:12:24;;;;;;;3.63;1.83;;;18.80;62.80;;;;;;5017093;28;20104;-64
2022/03/02 09:14:49;;;;;;;3.25;2.05;;;18.80;62.80;;;;;;5034850;28;20031;-64
2022/03/02 09:17:19;;;;;;;3.33;1.70;;;18.80;62.80;;;;;;5033527;28;20025;-64
2022/03/02 09:19:45;;;;;;;6.22;1.58;;;18.80;62.80;;;;;;5033545;28;20049;-64
2022/03/02 09:22:10;;;;;;;4.25;1.58;;;18.80;62.80;;;;;;5044197;28;20044;-64
2022/03/02 09:24:38;;;;;;;4.63;1.88;;;18.80;62.80;;;;;;5034811;28;20381;-64
2022/03/02 09:27:03;;;;;;;3.72;2.00;;;18.80;62.70;;;;;;5049818;28;20504;-64
2022/03/02 09:29:30;;;;;;;3.15;1.75;;;18.80;62.70;;;;;;5033387;28;20021;-64
2022/03/02 09:31:57;;;;;;;4.57;2.00;;;18.80;62.70;;;;;;5034552;28;20373;-64
2022/03/02 09:34:25;;;;;;;3.85;1.80;;;18.80;62.70;;;;;;5049791;28;20039;-64
2022/03/02 09:36:51;;;;;;;5.32;1.65;;;18.80;62.70;;;;;;5034336;28;20049;-64
2022/03/02 09:39:17;;;;;;;2.83;1.70;;;18.80;62.70;;;;;;5049689;28;20395;-64
2022/03/02 09:41:49;;;;;;;3.47;1.75;;;18.80;62.70;;;;;;5034391;28;20017;-64
2022/03/02 09:44:17;;;;;;;2.20;1.40;;;18.80;62.60;;;;;;5033961;28;20029;-64
2022/03/02 09:46:43;;;;;;;3.00;1.67;;;18.80;62.70;;;;;;5034215;28;20570;-64
2022/03/02 09:49:10;;;;;;;2.97;1.60;;;18.80;62.70;;;;;;5032942;28;20104;-64
2022/03/02 09:51:37;;;;;;;2.78;1.40;;;18.90;62.70;;;;;;5034062;28;20039;-64
2022/03/02 09:54:03;;;;;;;3.53;1.52;;;18.80;62.70;;;;;;5034081;28;20053;-64
2022/03/02 09:56:31;;;;;;;2.10;1.50;;;18.80;62.60;;;;;;5034053;28;20438;-64
2022/03/02 09:58:57;;;;;;;3.30;1.60;;;18.80;62.60;;;;;;5049308;28;20041;-64
2022/03/02 10:01:24;;;;;;;2.63;1.42;;;18.80;62.50;;;;;;5049047;28;20022;-64
2022/03/02 10:03:51;;;;;;;3.67;1.40;;;18.80;62.60;;;;;;5034009;28;20060;-64
2022/03/02 10:06:17;;;;;;;2.28;1.50;;;18.80;62.50;;;;;;5033488;28;20022;-64
2022/03/02 10:08:48;;;;;;;1.92;1.45;;;18.80;62.50;;;;;;5032650;28;20108;-64
2022/03/02 10:11:15;;;;;;;3.20;1.60;;;18.90;62.60;;;;;;5033759;28;20066;-64
2022/03/02 10:13:41;;;;;;;2.05;1.58;;;18.80;62.50;;;;;;5049159;28;20090;-64
2022/03/02 10:16:07;;;;;;;2.97;1.33;;;18.80;62.50;;;;;;5032530;28;20022;-64
2022/03/02 10:18:34;;;;;;;2.22;1.45;;;18.90;62.60;;;;;;5048691;28;20087;-64
2022/03/02 10:21:00;;;;;;;3.05;1.73;;;18.90;62.50;;;;;;5034058;28;20485;-64
2022/03/02 10:23:35;;;;;;;2.15;1.23;;;18.90;62.50;;;;;;5035320;28;20921;-64
2022/03/02 10:26:06;;;;;;;2.75;1.30;;;18.90;62.50;;;;;;5053509;28;20086;-64
2022/03/02 10:28:37;;;;;;;2.58;1.23;;;18.90;62.50;;;;;;5053352;28;20491;-64
2022/03/02 10:31:22;;;;;;;2.58;1.42;;;18.80;62.40;;;;;;5053315;28;20025;-64
2022/03/02 10:33:54;;;;;;;2.95;1.30;;;18.90;62.50;;;;;;5052110;28;20024;-64
2022/03/02 10:36:21;;;;;;;1.52;1.23;;;18.80;62.30;;;;;;5051945;28;20025;-64
2022/03/02 10:39:00;;;;;;;1.50;1.20;;;18.90;62.50;;;;;;5035458;28;20437;-64
2022/03/02 10:41:27;;;;;;;3.63;1.33;;;18.90;62.40;;;;;;5052052;28;20086;-64
2022/03/02 10:44:00;;;;;;;3.05;1.40;;;18.90;62.40;;;;;;5051815;28;20025;-64
2022/03/02 10:46:26;;;;;;;;;;;18.90;62.40;;;;;;5052363;28;20095;-64
2022/03/02 10:49:16;;;;;;;1.65;1.10;;;18.80;62.20;;;;;;5052814;28;19948;-64
2022/03/02 10:51:42;;;;;;;2.10;1.10;;;18.80;62.50;;;;;;5051741;28;20094;-64
2022/03/02 10:54:07;;;;;;;1.73;1.25;;;18.80;62.50;;;;;;5051804;28;20075;-64
2022/03/02 10:56:38;;;;;;;2.22;1.00;;;18.80;62.40;;;;;;5051611;28;20021;-64
2022/03/02 10:59:06;;;;;;;1.83;1.00;;;18.80;62.40;;;;;;5052752;28;20585;-64
2022/03/02 11:01:32;;;;;;;1.50;1.08;;;18.80;62.40;;;;;;5018445;28;20442;-64
2022/03/02 11:03:58;;;;;;;1.05;0.90;;;18.80;62.30;;;;;;5052457;28;20025;-64
2022/03/02 11:06:24;;;;;;;2.85;1.15;;;18.90;62.30;;;;;;5034839;28;20025;-64
2022/03/02 11:08:50;;;;;;;2.47;1.30;;;18.90;62.30;;;;;;5034895;28;20060;-64
2022/03/02 11:11:16;;;;;;;2.50;1.33;;;18.90;62.30;;;;;;5051548;28;20098;-64
2022/03/02 11:13:41;;;;;;;3.15;1.02;;;18.90;62.30;;;;;;5034751;28;20072;-64
2022/03/02 11:16:07;;;;;;;1.38;0.90;;;18.90;62.20;;;;;;5034631;28;20029;-64
2022/03/02 11:18:41;;;;;;;1.55;1.00;;;18.90;62.20;;;;;;5052205;28;20032;-64
2022/03/02 11:21:07;;;;;;;1.73;0.95;;;18.90;62.20;;;;;;5052262;28;20017;-64
2022/03/02 11:23:43;;;;;;;0.90;0.80;;;18.90;62.20;;;;;;5047604;28;20041;-64
2022/03/02 11:26:14;;;;;;;1.20;0.88;;;18.90;62.10;;;;;;5032420;28;20067;-64
2022/03/02 11:28:48;;;;;;;1.33;0.98;;;18.90;62.20;;;;;;5047214;28;20458;-64
2022/03/02 11:31:26;;;;;;;1.55;0.93;;;18.90;62.20;;;;;;5046498;28;20529;-64
2022/03/02 11:34:12;;;;;;;1.20;0.95;;;18.90;62.00;;;;;;5047682;28;20033;-64
2022/03/02 11:36:39;;;;;;;0.98;0.82;;;18.90;62.00;;;;;;5046295;28;20028;-64
2022/03/02 11:39:06;;;;;;;0.88;0.82;;;18.90;62.20;;;;;;5047956;28;20033;-64
2022/03/02 11:41:33;;;;;;;1.20;0.90;;;18.90;62.10;;;;;;5032249;28;20025;-64
2022/03/02 11:44:02;;;;;;;1.00;0.88;;;18.90;62.10;;;;;;5032310;28;20112;-64
2022/03/02 11:46:28;;;;;;;1.35;0.98;;;18.90;62.00;;;;;;5047496;28;20116;-64
2022/03/02 11:48:54;;;;;;;0.70;0.70;;;18.90;62.00;;;;;;5032479;28;20109;-64
2022/03/02 11:51:23;;;;;;;2.53;1.02;;;18.90;62.00;;;;;;5032254;28;20017;-64
2022/03/02 11:53:52;;;;;;;1.27;0.90;;;18.90;62.00;;;;;;5032362;28;20029;-64
2022/03/02 11:56:20;;;;;;;2.38;1.20;;;18.90;61.90;;;;;;5047492;28;20576;-64
2022/03/02 11:59:03;;;;;;;0.80;0.70;;;18.90;62.00;;;;;;5047462;28;20029;-64
2022/03/02 12:01:41;;;;;;;0.90;0.77;;;19.00;61.90;;;;;;5031885;28;20080;-64
2022/03/02 12:04:07;;;;;;;1.00;0.90;;;19.00;61.90;;;;;;5032070;28;20029;-64
2022/03/02 12:06:51;;;;;;;0.80;0.70;;;18.90;62.00;;;;;;5031993;28;20024;-64
2022/03/02 12:09:29;;;;;;;1.25;1.00;;;19.00;61.80;;;;;;5047405;28;20021;-64
2022/03/02 12:12:12;;;;;;;1.90;0.80;;;18.90;61.90;;;;;;5047634;28;20044;-64
2022/03/02 12:14:53;;;;;;;1.10;0.95;;;19.00;61.80;;;;;;5046728;28;20021;-64
2022/03/02 12:17:20;;;;;;;1.00;0.90;;;19.00;61.80;;;;;;5031728;28;20561;-64
2022/03/02 12:19:48;;;;;;;1.27;0.98;;;18.90;61.90;;;;;;5047271;28;20033;-64
2022/03/02 12:22:14;;;;;;;1.10;0.82;;;18.90;61.90;;;;;;5031451;28;20515;-64
2022/03/02 12:24:40;;;;;;;1.50;0.77;;;19.00;61.90;;;;;;5030704;28;20079;-64
2022/03/02 12:27:10;;;;;;;0.95;0.80;;;18.90;61.80;;;;;;5047480;28;20391;-64
2022/03/02 12:29:37;;;;;;;1.10;0.95;;;19.00;61.80;;;;;;5030788;28;20534;-64
2022/03/02 12:32:15;;;;;;;0.70;0.60;;;18.90;61.70;;;;;;5047119;28;20079;-64
2022/03/02 12:34:45;;;;;;;1.20;0.80;;;19.00;61.70;;;;;;5031773;28;20022;-64
2022/03/02 12:37:12;;;;;;;1.73;0.80;;;19.00;61.80;;;;;;5032020;28;20020;-64
2022/03/02 12:39:38;;;;;;;0.98;0.82;;;19.00;61.80;;;;;;5031800;28;20018;-64